KELZ

Wellsville Municipal Arpt,tarantine Field Airport

Wellsville, New York, USA
METAR KELZ 271156Z AUTO 00000KT 3/4SM -RA BR FEW001 BKN036 OVC043 17/17 A3000 RMK AO2 RAB52 SLP146 P0001 60022 70022 T01720167 10194 20161 51009
Observed Flight Rules
May-27 @ 11:56 UTC (9 minutes ago) Instrument Flight Rules
Visibility Clouds Conditions
3/4 miles
  • Few at 100' AGL
  • Broken at 3,600' AGL
  • Overcast at 4,300' AGL
  • Light Rain
  • Mist
Temperatures Readings Precipitation
Current 17°C / 63°F
Dewpoint 17°C / 63°F
Humidity 100%
Altimeter 30" Hg
Pressure 1014.6 hPa
Elevation 646
Current Rain 0.01
METAR KELZ 271156Z AUTO 00000KT 3/4SM -RA BR FEW001 BKN036 OVC043 17/17 A3000 RMK AO2 RAB52 SLP146 P0001 60022 70022 T01720167 10194 20161 51009
Observed Flight Rules
May-27 @ 11:56 UTC
(9 minutes ago)
LIFR
Clouds
  • Few at 100' AGL
  • Broken at 3,600' AGL
  • Overcast at 4,300' AGL
Conditions
  • Light Rain
  • Mist
Temperature Dewpoint
17°C / 63°F 17°C / 63°F
Humidity Altimeter Pressure
100% 30" Hg 1014.6 hPa
Current Rain
0.01